EAG5511 SBSP-SBRJ
Flight info
| Callsign | EAG5511 |
|---|---|
| Flight time | 0h 37m |
| Altitude | 31000 |
| Route | NIBRU UZ171 KEVUN |
| Aircraft | C700/M-SBDGHM1RWXY/LB2 |
Departure
| Time | 2026-04-30 22:03 |
|---|---|
| Airport | Congonhas–Deputado Freitas Nobre Airport (SBSP) |
Arrival
| Time | 2026-04-30 22:40 |
|---|---|
| Airport | Santos Dumont Airport (SBRJ) |
| Time | Latitude | Longitude | Altitude | Speed | Heading |
|---|---|---|---|---|---|
| 2026-04-30 21:52 | -23.62882 | -46.65708 | 2622 ft | 0 kts | 327° |
| 2026-04-30 21:56 | -23.62886 | -46.65705 | 2622 ft | 3 kts | 327° |
| 2026-04-30 21:56 | -23.62900 | -46.65695 | 2622 ft | 2 kts | 327° |
| 2026-04-30 21:57 | -23.62913 | -46.65687 | 2623 ft | 2 kts | 351° |
| 2026-04-30 21:57 | -23.62918 | -46.65686 | 2623 ft | 0 kts | 19° |
| 2026-04-30 21:57 | -23.62917 | -46.65686 | 2623 ft | 1 kts | 19° |
| 2026-04-30 21:58 | -23.62905 | -46.65657 | 2623 ft | 8 kts | 69° |
| 2026-04-30 21:58 | -23.62858 | -46.65620 | 2622 ft | 11 kts | 334° |
| 2026-04-30 21:58 | -23.62776 | -46.65681 | 2620 ft | 17 kts | 327° |
| 2026-04-30 21:58 | -23.62667 | -46.65757 | 2618 ft | 20 kts | 328° |
| 2026-04-30 21:59 | -23.62536 | -46.65842 | 2615 ft | 24 kts | 330° |
| 2026-04-30 21:59 | -23.62430 | -46.65918 | 2612 ft | 17 kts | 326° |
| 2026-04-30 21:59 | -23.62351 | -46.65972 | 2610 ft | 10 kts | 329° |
| 2026-04-30 22:00 | -23.62248 | -46.66037 | 2607 ft | 8 kts | 330° |
| 2026-04-30 22:00 | -23.62181 | -46.66080 | 2605 ft | 2 kts | 327° |
| 2026-04-30 22:00 | -23.62156 | -46.66097 | 2604 ft | 0 kts | 327° |
| 2026-04-30 22:02 | -23.62153 | -46.66099 | 2604 ft | 4 kts | 327° |
| 2026-04-30 22:02 | -23.62081 | -46.66135 | 2601 ft | 18 kts | 3° |
| 2026-04-30 22:02 | -23.62037 | -46.66081 | 2599 ft | 3 kts | 143° |
| 2026-04-30 22:02 | -23.62075 | -46.66053 | 2601 ft | 26 kts | 147° |
| 2026-04-30 22:03 | -23.62512 | -46.65748 | 2615 ft | 123 kts | 148° |
| 2026-04-30 22:03 | -23.63479 | -46.65099 | 2829 ft | 197 kts | 147° |
| 2026-04-30 22:03 | -23.64681 | -46.64192 | 4012 ft | 222 kts | 135° |
| 2026-04-30 22:03 | -23.65513 | -46.62717 | 5330 ft | 236 kts | 114° |
| 2026-04-30 22:04 | -23.66220 | -46.61010 | 6574 ft | 260 kts | 117° |
| 2026-04-30 22:04 | -23.67114 | -46.59183 | 7619 ft | 287 kts | 120° |
| 2026-04-30 22:04 | -23.69093 | -46.55295 | 10523 ft | 303 kts | 120° |
| 2026-04-30 22:05 | -23.70139 | -46.53184 | 11495 ft | 330 kts | 120° |
| 2026-04-30 22:05 | -23.71131 | -46.50882 | 12817 ft | 340 kts | 110° |
| 2026-04-30 22:05 | -23.71631 | -46.48325 | 14194 ft | 351 kts | 97° |
| 2026-04-30 22:05 | -23.71577 | -46.45635 | 15401 ft | 359 kts | 82° |
| 2026-04-30 22:06 | -23.71188 | -46.42922 | 16629 ft | 365 kts | 81° |
| 2026-04-30 22:06 | -23.70392 | -46.37346 | 18943 ft | 379 kts | 81° |
| 2026-04-30 22:06 | -23.69983 | -46.34459 | 19810 ft | 391 kts | 80° |
| 2026-04-30 22:07 | -23.69564 | -46.31540 | 20761 ft | 399 kts | 80° |
| 2026-04-30 22:07 | -23.69133 | -46.28523 | 21719 ft | 407 kts | 79° |
| 2026-04-30 22:07 | -23.68694 | -46.25445 | 22654 ft | 415 kts | 79° |
| 2026-04-30 22:07 | -23.68246 | -46.22306 | 23577 ft | 423 kts | 79° |
| 2026-04-30 22:08 | -23.67786 | -46.19107 | 24367 ft | 430 kts | 79° |
| 2026-04-30 22:08 | -23.67322 | -46.15871 | 25159 ft | 436 kts | 79° |
| 2026-04-30 22:08 | -23.66848 | -46.12579 | 25951 ft | 442 kts | 79° |
| 2026-04-30 22:08 | -23.66370 | -46.09245 | 26752 ft | 448 kts | 79° |
| 2026-04-30 22:09 | -23.65887 | -46.05868 | 27537 ft | 453 kts | 79° |
| 2026-04-30 22:09 | -23.65397 | -46.02450 | 28301 ft | 459 kts | 79° |
| 2026-04-30 22:09 | -23.64897 | -45.98987 | 29043 ft | 465 kts | 79° |
| 2026-04-30 22:09 | -23.64392 | -45.95478 | 29787 ft | 471 kts | 79° |
| 2026-04-30 22:10 | -23.63889 | -45.91985 | 30502 ft | 476 kts | 79° |
| 2026-04-30 22:10 | -23.63369 | -45.88395 | 31061 ft | 484 kts | 79° |
| 2026-04-30 22:10 | -23.62830 | -45.84694 | 31103 ft | 505 kts | 79° |
| 2026-04-30 22:10 | -23.62272 | -45.80840 | 31117 ft | 525 kts | 79° |
| 2026-04-30 22:11 | -23.61102 | -45.72780 | 31117 ft | 545 kts | 79° |
| 2026-04-30 22:11 | -23.60504 | -45.68684 | 31111 ft | 548 kts | 79° |
| 2026-04-30 22:12 | -23.59305 | -45.60478 | 31110 ft | 548 kts | 79° |
| 2026-04-30 22:12 | -23.58109 | -45.52346 | 31114 ft | 541 kts | 79° |
| 2026-04-30 22:13 | -23.56781 | -45.44319 | 31112 ft | 536 kts | 75° |
| 2026-04-30 22:13 | -23.55077 | -45.36411 | 31108 ft | 535 kts | 75° |
| 2026-04-30 22:14 | -23.53427 | -45.28518 | 31105 ft | 534 kts | 75° |
| 2026-04-30 22:14 | -23.51736 | -45.20640 | 31099 ft | 534 kts | 75° |
| 2026-04-30 22:15 | -23.50067 | -45.12798 | 30448 ft | 538 kts | 75° |
| 2026-04-30 22:15 | -23.49238 | -45.08841 | 29697 ft | 533 kts | 75° |
| 2026-04-30 22:15 | -23.48391 | -45.04898 | 28993 ft | 536 kts | 74° |
| 2026-04-30 22:15 | -23.47534 | -45.00964 | 28287 ft | 532 kts | 74° |
| 2026-04-30 22:16 | -23.46700 | -44.97056 | 27591 ft | 527 kts | 75° |
| 2026-04-30 22:16 | -23.45877 | -44.93185 | 26906 ft | 521 kts | 74° |
| 2026-04-30 22:17 | -23.43360 | -44.81961 | 24881 ft | 504 kts | 73° |
| 2026-04-30 22:17 | -23.42552 | -44.78261 | 24232 ft | 500 kts | 73° |
| 2026-04-30 22:17 | -23.40920 | -44.70977 | 22873 ft | 489 kts | 73° |
| 2026-04-30 22:18 | -23.40123 | -44.67400 | 22221 ft | 484 kts | 73° |
| 2026-04-30 22:18 | -23.38549 | -44.60352 | 20960 ft | 475 kts | 73° |
| 2026-04-30 22:19 | -23.37007 | -44.53469 | 19720 ft | 467 kts | 74° |
| 2026-04-30 22:19 | -23.36239 | -44.50053 | 19111 ft | 463 kts | 74° |
| 2026-04-30 22:19 | -23.34715 | -44.43326 | 17791 ft | 451 kts | 73° |
| 2026-04-30 22:20 | -23.33626 | -44.40219 | 17197 ft | 428 kts | 62° |
| 2026-04-30 22:20 | -23.31180 | -44.34539 | 16102 ft | 406 kts | 63° |
| 2026-04-30 22:20 | -23.29999 | -44.31768 | 15570 ft | 402 kts | 63° |
| 2026-04-30 22:21 | -23.28813 | -44.29031 | 15038 ft | 398 kts | 63° |
| 2026-04-30 22:21 | -23.27655 | -44.26349 | 14521 ft | 395 kts | 63° |
| 2026-04-30 22:21 | -23.26500 | -44.23655 | 14004 ft | 391 kts | 63° |
| 2026-04-30 22:21 | -23.25352 | -44.20988 | 13459 ft | 386 kts | 63° |
| 2026-04-30 22:22 | -23.24221 | -44.18361 | 12951 ft | 382 kts | 64° |
| 2026-04-30 22:22 | -23.23103 | -44.15774 | 12454 ft | 371 kts | 64° |
| 2026-04-30 22:22 | -23.22037 | -44.13297 | 11972 ft | 353 kts | 64° |
| 2026-04-30 22:22 | -23.21015 | -44.10931 | 11522 ft | 338 kts | 64° |
| 2026-04-30 22:23 | -23.20033 | -44.08658 | 11082 ft | 326 kts | 64° |
| 2026-04-30 22:23 | -23.19062 | -44.06554 | 10991 ft | 305 kts | 62° |
| 2026-04-30 22:23 | -23.18134 | -44.04532 | 10993 ft | 297 kts | 63° |
| 2026-04-30 22:23 | -23.17222 | -44.02509 | 10995 ft | 300 kts | 63° |
| 2026-04-30 22:24 | -23.16285 | -44.00472 | 10991 ft | 302 kts | 62° |
| 2026-04-30 22:24 | -23.15377 | -43.98414 | 11000 ft | 302 kts | 65° |
| 2026-04-30 22:24 | -23.14503 | -43.96333 | 10995 ft | 303 kts | 64° |
| 2026-04-30 22:24 | -23.13600 | -43.94262 | 10989 ft | 303 kts | 64° |
| 2026-04-30 22:25 | -23.12705 | -43.92186 | 10903 ft | 304 kts | 64° |
| 2026-04-30 22:25 | -23.11818 | -43.90099 | 10681 ft | 303 kts | 65° |
| 2026-04-30 22:25 | -23.10945 | -43.88059 | 10424 ft | 300 kts | 64° |
| 2026-04-30 22:25 | -23.10071 | -43.86017 | 10156 ft | 297 kts | 65° |
| 2026-04-30 22:26 | -23.08343 | -43.81983 | 9587 ft | 292 kts | 64° |
| 2026-04-30 22:26 | -23.07489 | -43.79991 | 9306 ft | 290 kts | 64° |
| 2026-04-30 22:26 | -23.06639 | -43.78008 | 9045 ft | 289 kts | 64° |
| 2026-04-30 22:27 | -23.05792 | -43.76033 | 8780 ft | 288 kts | 64° |
| 2026-04-30 22:27 | -23.04949 | -43.74069 | 8510 ft | 287 kts | 64° |
| 2026-04-30 22:27 | -23.03271 | -43.70162 | 7994 ft | 284 kts | 64° |
| 2026-04-30 22:28 | -23.01873 | -43.66952 | 7556 ft | 282 kts | 64° |
| 2026-04-30 22:28 | -23.00756 | -43.64411 | 7219 ft | 281 kts | 64° |
| 2026-04-30 22:29 | -22.98276 | -43.58756 | 6717 ft | 274 kts | 64° |
| 2026-04-30 22:29 | -22.97738 | -43.57533 | 6607 ft | 266 kts | 64° |
| 2026-04-30 22:30 | -22.94806 | -43.50843 | 5979 ft | 227 kts | 66° |
| 2026-04-30 22:31 | -22.93341 | -43.46231 | 5631 ft | 204 kts | 69° |
| 2026-04-30 22:32 | -22.91975 | -43.41878 | 5133 ft | 205 kts | 75° |
| 2026-04-30 22:32 | -22.91510 | -43.38811 | 4794 ft | 206 kts | 78° |
| 2026-04-30 22:33 | -22.90767 | -43.34258 | 4269 ft | 204 kts | 79° |
| 2026-04-30 22:33 | -22.90281 | -43.31245 | 3920 ft | 200 kts | 79° |
| 2026-04-30 22:34 | -22.89700 | -43.26982 | 3418 ft | 185 kts | 95° |
| 2026-04-30 22:35 | -22.89963 | -43.24268 | 3079 ft | 177 kts | 92° |
| 2026-04-30 22:36 | -22.90384 | -43.19091 | 2501 ft | 165 kts | 94° |
| 2026-04-30 22:36 | -22.90481 | -43.17894 | 2355 ft | 154 kts | 93° |
| 2026-04-30 22:37 | -22.90481 | -43.14549 | 1936 ft | 148 kts | 88° |
| 2026-04-30 22:37 | -22.90263 | -43.13489 | 1735 ft | 143 kts | 55° |
| 2026-04-30 22:37 | -22.88553 | -43.12539 | 1373 ft | 146 kts | 354° |
| 2026-04-30 22:38 | -22.87000 | -43.13792 | 994 ft | 147 kts | 290° |
| 2026-04-30 22:38 | -22.87363 | -43.15822 | 655 ft | 145 kts | 229° |
| 2026-04-30 22:39 | -22.88210 | -43.16382 | 470 ft | 142 kts | 195° |
| 2026-04-30 22:39 | -22.91010 | -43.16289 | 24 ft | 110 kts | 175° |
| 2026-04-30 22:40 | -22.91347 | -43.16382 | 22 ft | 0 kts | 269° |
| 2026-04-30 22:41 | -22.91315 | -43.16507 | 24 ft | 11 kts | 352° |
| 2026-04-30 22:41 | -22.91280 | -43.16581 | 27 ft | 2 kts | 267° |
| 2026-04-30 22:42 | -22.91281 | -43.16586 | 26 ft | 0 kts | 267° |